Time,TemperatureF,DewpointF,PressureIn,WindDirection,WindDirectionDegrees,WindSpeedMPH,WindSpeedGustMPH,Humidity,HourlyPrecipIn,Conditions,Clouds,dailyrainin,SoftwareType,DateUTC
2013-06-09 00:04:00,61.2,49.3,29.12,North,356,4.9,4.9,65,0.00,,---,0.00,VWS V13.01,2013-06-09 04:04:00,
2013-06-09 00:09:00,61.2,49.3,29.12,North,356,4.9,4.9,65,0.00,,---,0.00,VWS V13.01,2013-06-09 04:09:00,
2013-06-09 00:14:00,60.8,49.0,29.12,North,356,4.9,4.9,65,0.00,,---,0.00,VWS V13.01,2013-06-09 04:14:00,
2013-06-09 00:19:00,60.6,50.0,29.12,North,356,4.9,4.9,68,0.00,,---,0.00,VWS V13.01,2013-06-09 04:19:00,
2013-06-09 00:24:00,60.4,50.2,29.12,North,356,4.9,4.9,69,0.00,,---,0.00,VWS V13.01,2013-06-09 04:24:00,
2013-06-09 00:29:00,60.3,50.1,29.12,North,356,4.9,4.9,69,0.00,,---,0.00,VWS V13.01,2013-06-09 04:29:00,
2013-06-09 00:39:00,60.3,50.1,29.12,North,356,4.9,4.9,69,0.00,,---,0.00,VWS V13.01,2013-06-09 04:39:00,
2013-06-09 00:44:00,60.1,50.3,29.12,North,356,4.9,4.9,70,0.00,,---,0.00,VWS V13.01,2013-06-09 04:44:00,
2013-06-09 00:49:00,60.3,50.5,29.12,North,356,4.9,4.9,70,0.00,,---,0.00,VWS V13.01,2013-06-09 04:49:00,
2013-06-09 00:54:00,60.3,50.5,29.12,North,356,4.9,4.9,70,0.00,,---,0.00,VWS V13.01,2013-06-09 04:54:00,
2013-06-09 00:59:00,60.1,49.9,29.12,North,356,4.9,4.9,69,0.00,,---,0.00,VWS V13.01,2013-06-09 04:59:00,
2013-06-09 01:04:00,59.9,49.7,29.12,North,356,4.9,4.9,69,0.00,,---,0.00,VWS V13.01,2013-06-09 05:04:00,
2013-06-09 01:09:00,59.7,49.5,29.12,North,356,4.9,4.9,69,0.00,,---,0.00,VWS V13.01,2013-06-09 05:09:00,
2013-06-09 01:14:00,59.5,49.4,29.12,North,356,4.9,4.9,69,0.00,,---,0.00,VWS V13.01,2013-06-09 05:14:00,
2013-06-09 01:24:00,59.4,49.6,29.12,North,356,4.9,4.9,70,0.00,,---,0.00,VWS V13.01,2013-06-09 05:24:00,
2013-06-09 01:29:00,59.4,50.0,29.12,North,356,4.9,4.9,71,0.00,,---,0.00,VWS V13.01,2013-06-09 05:29:00,
2013-06-09 01:34:00,59.2,49.8,29.12,North,356,4.9,4.9,71,0.00,,---,0.00,VWS V13.01,2013-06-09 05:34:00,
2013-06-09 01:39:00,59.2,49.8,29.12,North,356,4.9,4.9,71,0.00,,---,0.00,VWS V13.01,2013-06-09 05:39:00,
2013-06-09 01:44:00,59.4,50.3,29.12,North,356,4.9,4.9,72,0.00,,---,0.00,VWS V13.01,2013-06-09 05:44:00,
2013-06-09 01:49:00,59.2,50.2,29.15,North,356,4.9,4.9,72,0.00,,---,0.00,VWS V13.01,2013-06-09 05:49:00,
2013-06-09 01:54:00,59.2,49.8,29.15,North,356,4.9,4.9,71,0.00,,---,0.00,VWS V13.01,2013-06-09 05:54:00,
2013-06-09 01:59:00,59.0,49.6,29.15,North,356,4.9,4.9,71,0.00,,---,0.00,VWS V13.01,2013-06-09 05:59:00,
2013-06-09 02:04:00,59.0,49.6,29.12,North,356,4.9,4.9,71,0.00,,---,0.00,VWS V13.01,2013-06-09 06:04:00,
2013-06-09 02:09:00,59.2,50.2,29.12,North,356,4.9,4.9,72,0.00,,---,0.00,VWS V13.01,2013-06-09 06:09:00,
2013-06-09 02:14:00,59.2,50.2,29.12,North,356,4.9,4.9,72,0.00,,---,0.00,VWS V13.01,2013-06-09 06:14:00,
2013-06-09 02:19:00,59.2,50.2,29.12,North,356,4.9,4.9,72,0.00,,---,0.00,VWS V13.01,2013-06-09 06:19:00,
2013-06-09 02:24:00,59.0,49.6,29.12,North,356,4.9,4.9,71,0.00,,---,0.00,VWS V13.01,2013-06-09 06:24:00,
2013-06-09 02:29:00,59.0,49.6,29.12,North,356,4.9,4.9,71,0.00,,---,0.00,VWS V13.01,2013-06-09 06:29:00,
2013-06-09 02:34:00,58.8,49.8,29.12,North,356,4.9,4.9,72,0.00,,---,0.00,VWS V13.01,2013-06-09 06:34:00,
2013-06-09 02:39:00,58.8,49.8,29.12,North,356,4.9,4.9,72,0.00,,---,0.00,VWS V13.01,2013-06-09 06:39:00,
2013-06-09 02:44:00,58.6,49.7,29.12,North,356,4.9,4.9,72,0.00,,---,0.00,VWS V13.01,2013-06-09 06:44:00,
2013-06-09 02:49:00,58.5,49.8,29.15,North,356,4.9,4.9,73,0.00,,---,0.00,VWS V13.01,2013-06-09 06:49:00,
2013-06-09 02:54:00,58.1,49.5,29.15,North,356,4.9,4.9,73,0.00,,---,0.00,VWS V13.01,2013-06-09 06:54:00,
2013-06-09 02:59:00,58.1,49.5,29.15,North,356,4.9,4.9,73,0.00,,---,0.00,VWS V13.01,2013-06-09 06:59:00,
2013-06-09 03:09:00,57.9,49.7,29.15,North,356,4.9,4.9,74,0.00,,---,0.00,VWS V13.01,2013-06-09 07:09:00,
2013-06-09 03:14:00,57.9,49.7,29.15,North,356,4.9,4.9,74,0.00,,---,0.00,VWS V13.01,2013-06-09 07:14:00,
2013-06-09 03:19:00,57.9,50.0,29.12,North,356,4.9,4.9,75,0.00,,---,0.00,VWS V13.01,2013-06-09 07:19:00,
2013-06-09 03:24:00,57.9,50.0,29.12,North,356,4.9,4.9,75,0.00,,---,0.00,VWS V13.01,2013-06-09 07:24:00,
2013-06-09 03:29:00,57.9,50.0,29.12,North,356,4.9,4.9,75,0.00,,---,0.00,VWS V13.01,2013-06-09 07:29:00,
2013-06-09 03:34:00,57.7,49.9,29.12,North,356,4.9,4.9,75,0.00,,---,0.00,VWS V13.01,2013-06-09 07:34:00,
2013-06-09 03:39:00,57.6,49.7,29.12,North,356,4.9,4.9,75,0.00,,---,0.00,VWS V13.01,2013-06-09 07:39:00,
2013-06-09 03:44:00,57.6,49.7,29.12,North,356,4.9,4.9,75,0.00,,---,0.00,VWS V13.01,2013-06-09 07:44:00,
2013-06-09 03:49:00,57.6,49.7,29.12,North,356,4.9,4.9,75,0.00,,---,0.00,VWS V13.01,2013-06-09 07:49:00,
2013-06-09 03:59:00,57.4,49.5,29.12,North,356,4.9,4.9,75,0.00,,---,0.00,VWS V13.01,2013-06-09 07:59:00,
2013-06-09 04:04:00,57.4,49.5,29.15,North,356,4.9,4.9,75,0.00,,---,0.00,VWS V13.01,2013-06-09 08:04:00,
2013-06-09 04:14:00,57.2,49.0,29.15,North,356,4.9,4.9,74,0.00,,---,0.00,VWS V13.01,2013-06-09 08:14:00,
2013-06-09 04:19:00,57.0,48.8,29.15,North,356,4.9,4.9,74,0.00,,---,0.00,VWS V13.01,2013-06-09 08:19:00,
2013-06-09 04:24:00,56.8,48.7,29.15,North,356,4.9,4.9,74,0.00,,---,0.00,VWS V13.01,2013-06-09 08:24:00,
2013-06-09 04:29:00,56.8,48.7,29.15,North,356,4.9,4.9,74,0.00,,---,0.00,VWS V13.01,2013-06-09 08:29:00,
2013-06-09 04:34:00,56.8,48.7,29.12,North,356,4.9,4.9,74,0.00,,---,0.00,VWS V13.01,2013-06-09 08:34:00,
2013-06-09 04:39:00,56.8,48.7,29.12,North,356,4.9,4.9,74,0.00,,---,0.00,VWS V13.01,2013-06-09 08:39:00,
2013-06-09 04:44:00,56.8,48.7,29.12,North,356,4.9,4.9,74,0.00,,---,0.00,VWS V13.01,2013-06-09 08:44:00,
2013-06-09 04:49:00,56.7,48.5,29.15,North,356,4.9,4.9,74,0.00,,---,0.00,VWS V13.01,2013-06-09 08:49:00,
2013-06-09 04:54:00,56.7,48.1,29.15,North,356,4.9,4.9,73,0.00,,---,0.00,VWS V13.01,2013-06-09 08:54:00,
2013-06-09 04:59:00,56.5,47.9,29.15,North,356,4.9,4.9,73,0.00,,---,0.00,VWS V13.01,2013-06-09 08:59:00,
2013-06-09 05:04:00,56.5,47.9,29.15,North,356,4.9,4.9,73,0.00,,---,0.00,VWS V13.01,2013-06-09 09:04:00,
2013-06-09 05:09:00,56.7,48.1,29.15,North,356,4.9,4.9,73,0.00,,---,0.00,VWS V13.01,2013-06-09 09:09:00,
2013-06-09 05:14:00,56.7,48.1,29.15,North,356,4.9,4.9,73,0.00,,---,0.00,VWS V13.01,2013-06-09 09:14:00,
2013-06-09 05:19:00,56.7,48.1,29.15,North,356,4.9,4.9,73,0.00,,---,0.00,VWS V13.01,2013-06-09 09:19:00,
2013-06-09 05:24:00,56.5,47.9,29.15,North,356,4.9,4.9,73,0.00,,---,0.00,VWS V13.01,2013-06-09 09:24:00,
2013-06-09 05:29:00,56.3,47.4,29.15,North,356,4.9,4.9,72,0.00,,---,0.00,VWS V13.01,2013-06-09 09:29:00,
2013-06-09 05:34:00,56.1,46.9,29.15,North,356,4.9,4.9,71,0.00,,---,0.00,VWS V13.01,2013-06-09 09:34:00,
2013-06-09 05:39:00,56.3,47.4,29.15,North,356,4.9,4.9,72,0.00,,---,0.00,VWS V13.01,2013-06-09 09:39:00,
2013-06-09 05:44:00,56.3,47.4,29.15,North,356,4.9,4.9,72,0.00,,---,0.00,VWS V13.01,2013-06-09 09:44:00,
2013-06-09 05:49:00,56.3,47.0,29.15,North,356,4.9,4.9,71,0.00,,---,0.00,VWS V13.01,2013-06-09 09:49:00,
2013-06-09 05:54:00,56.3,46.7,29.15,North,356,4.9,4.9,70,0.00,,---,0.00,VWS V13.01,2013-06-09 09:54:00,
2013-06-09 06:04:00,60.4,45.6,29.18,North,356,4.9,4.9,58,0.00,,---,0.00,VWS V13.01,2013-06-09 10:04:00,
2013-06-09 06:09:00,63.7,40.8,29.18,North,356,4.9,4.9,43,0.00,,---,0.00,VWS V13.01,2013-06-09 10:09:00,
2013-06-09 06:14:00,66.2,39.2,29.18,North,356,4.9,4.9,37,0.00,,---,0.00,VWS V13.01,2013-06-09 10:14:00,
2013-06-09 06:19:00,70.0,41.1,29.18,North,356,4.9,4.9,35,0.00,,---,0.00,VWS V13.01,2013-06-09 10:19:00,
2013-06-09 06:24:00,72.5,35.7,29.18,North,356,4.9,4.9,26,0.00,,---,0.00,VWS V13.01,2013-06-09 10:24:00,
2013-06-09 06:29:00,73.4,35.5,29.18,North,356,4.9,4.9,25,0.00,,---,0.00,VWS V13.01,2013-06-09 10:29:00,
2013-06-09 06:39:00,70.0,34.5,29.18,North,356,4.9,4.9,27,0.00,,---,0.00,VWS V13.01,2013-06-09 10:39:00,
2013-06-09 06:44:00,66.4,37.2,29.18,North,356,4.9,4.9,34,0.00,,---,0.00,VWS V13.01,2013-06-09 10:44:00,
2013-06-09 06:49:00,64.8,38.6,29.18,North,356,4.9,4.9,38,0.00,,---,0.00,VWS V13.01,2013-06-09 10:49:00,
2013-06-09 06:54:00,64.0,41.7,29.18,North,356,4.9,4.9,44,0.00,,---,0.00,VWS V13.01,2013-06-09 10:54:00,
2013-06-09 06:59:00,63.3,43.3,29.18,North,356,4.9,4.9,48,0.00,,---,0.00,VWS V13.01,2013-06-09 10:59:00,
2013-06-09 07:04:00,63.3,43.8,29.18,North,356,4.9,4.9,49,0.00,,---,0.00,VWS V13.01,2013-06-09 11:04:00,
2013-06-09 07:09:00,62.6,46.2,29.18,North,356,4.9,4.9,55,0.00,,---,0.00,VWS V13.01,2013-06-09 11:09:00,
2013-06-09 07:14:00,63.0,48.0,29.18,North,356,4.9,4.9,58,0.00,,---,0.00,VWS V13.01,2013-06-09 11:14:00,
2013-06-09 07:19:00,63.5,48.9,29.18,North,356,4.9,4.9,59,0.00,,---,0.00,VWS V13.01,2013-06-09 11:19:00,
2013-06-09 07:24:00,64.0,50.8,29.18,North,356,4.9,4.9,62,0.00,,---,0.00,VWS V13.01,2013-06-09 11:24:00,
2013-06-09 07:29:00,64.0,50.3,29.18,North,356,4.9,4.9,61,0.00,,---,0.00,VWS V13.01,2013-06-09 11:29:00,
2013-06-09 07:34:00,64.6,50.8,29.18,North,356,4.9,4.9,61,0.00,,---,0.00,VWS V13.01,2013-06-09 11:34:00,
2013-06-09 07:39:00,65.5,50.8,29.18,North,356,4.9,4.9,59,0.00,,---,0.00,VWS V13.01,2013-06-09 11:39:00,
2013-06-09 07:44:00,66.0,50.4,29.18,North,356,4.9,4.9,57,0.00,,---,0.00,VWS V13.01,2013-06-09 11:44:00,
2013-06-09 07:49:00,66.7,52.0,29.18,North,356,4.9,4.9,59,0.00,,---,0.00,VWS V13.01,2013-06-09 11:49:00,
2013-06-09 07:54:00,66.6,54.0,29.18,North,356,4.9,4.9,64,0.00,,---,0.00,VWS V13.01,2013-06-09 11:54:00,
2013-06-09 08:04:00,66.6,59.5,29.18,North,356,4.9,4.9,78,0.00,,---,0.00,VWS V13.01,2013-06-09 12:04:00,
2013-06-09 08:09:00,66.7,61.1,29.18,North,356,4.9,4.9,82,0.00,,---,0.00,VWS V13.01,2013-06-09 12:09:00,
2013-06-09 08:14:00,66.0,61.0,29.18,North,356,4.9,4.9,84,0.00,,---,0.00,VWS V13.01,2013-06-09 12:14:00,
2013-06-09 08:24:00,66.2,62.2,29.18,North,356,4.9,4.9,87,0.00,,---,0.00,VWS V13.01,2013-06-09 12:24:00,
2013-06-09 08:29:00,66.9,62.9,29.18,North,356,4.9,4.9,87,0.00,,---,0.00,VWS V13.01,2013-06-09 12:29:00,
2013-06-09 08:34:00,66.7,63.1,29.18,North,356,4.9,4.9,88,0.00,,---,0.00,VWS V13.01,2013-06-09 12:34:00,
2013-06-09 08:39:00,67.8,64.8,29.18,North,356,4.9,4.9,90,0.00,,---,0.00,VWS V13.01,2013-06-09 12:39:00,
2013-06-09 08:44:00,67.3,61.3,29.18,North,356,4.9,4.9,81,0.00,,---,0.00,VWS V13.01,2013-06-09 12:44:00,
2013-06-09 08:49:00,68.0,62.0,29.18,North,356,4.9,4.9,81,0.00,,---,0.00,VWS V13.01,2013-06-09 12:49:00,
2013-06-09 08:54:00,67.8,53.0,29.18,North,356,4.9,4.9,59,0.00,,---,0.00,VWS V13.01,2013-06-09 12:54:00,
2013-06-09 08:59:00,68.7,59.3,29.18,North,356,4.9,4.9,72,0.00,,---,0.00,VWS V13.01,2013-06-09 12:59:00,
2013-06-09 09:04:00,69.3,59.5,29.18,North,356,4.9,4.9,71,0.00,,---,0.00,VWS V13.01,2013-06-09 13:04:00,
2013-06-09 09:09:00,69.6,56.5,29.18,North,356,4.9,4.9,63,0.00,,---,0.00,VWS V13.01,2013-06-09 13:09:00,
2013-06-09 09:14:00,69.6,52.3,29.18,North,356,4.9,4.9,54,0.00,,---,0.00,VWS V13.01,2013-06-09 13:14:00,
2013-06-09 09:19:00,70.0,41.8,29.18,North,356,4.9,4.9,36,0.00,,---,0.00,VWS V13.01,2013-06-09 13:19:00,
2013-06-09 09:24:00,70.3,40.7,29.18,North,356,4.9,4.9,34,0.00,,---,0.00,VWS V13.01,2013-06-09 13:24:00,
2013-06-09 09:29:00,70.7,40.2,29.18,North,356,4.9,4.9,33,0.00,,---,0.00,VWS V13.01,2013-06-09 13:29:00,
2013-06-09 09:34:00,71.1,40.5,29.18,North,356,4.9,4.9,33,0.00,,---,0.00,VWS V13.01,2013-06-09 13:34:00,
2013-06-09 09:39:00,71.4,40.0,29.18,North,356,4.9,4.9,32,0.00,,---,0.00,VWS V13.01,2013-06-09 13:39:00,
2013-06-09 09:49:00,71.6,39.4,29.18,North,356,4.9,4.9,31,0.00,,---,0.00,VWS V13.01,2013-06-09 13:49:00,
2013-06-09 09:59:00,72.1,34.4,29.18,North,356,4.9,4.9,25,0.00,,---,0.00,VWS V13.01,2013-06-09 13:59:00,
2013-06-09 10:04:00,72.1,32.3,29.18,North,356,4.9,4.9,23,0.00,,---,0.00,VWS V13.01,2013-06-09 14:04:00,
2013-06-09 10:09:00,72.3,33.5,29.18,North,356,4.9,4.9,24,0.00,,---,0.00,VWS V13.01,2013-06-09 14:09:00,
2013-06-09 10:19:00,72.3,33.5,29.18,North,356,4.9,4.9,24,0.00,,---,0.00,VWS V13.01,2013-06-09 14:19:00,
2013-06-09 10:24:00,72.0,31.1,29.18,North,356,4.9,4.9,22,0.00,,---,0.00,VWS V13.01,2013-06-09 14:24:00,
2013-06-09 10:34:00,72.9,34.0,29.18,North,356,4.9,4.9,24,0.00,,---,0.00,VWS V13.01,2013-06-09 14:34:00,
2013-06-09 10:39:00,73.0,33.1,29.18,North,356,4.9,4.9,23,0.00,,---,0.00,VWS V13.01,2013-06-09 14:39:00,
2013-06-09 10:44:00,72.9,32.9,29.18,North,356,4.9,4.9,23,0.00,,---,0.00,VWS V13.01,2013-06-09 14:44:00,
2013-06-09 10:49:00,72.9,32.9,29.18,North,356,4.9,4.9,23,0.00,,---,0.00,VWS V13.01,2013-06-09 14:49:00,
2013-06-09 10:59:00,73.6,33.5,29.18,North,356,4.9,4.9,23,0.00,,---,0.00,VWS V13.01,2013-06-09 14:59:00,
2013-06-09 11:04:00,73.8,32.6,29.18,North,356,4.9,4.9,22,0.00,,---,0.00,VWS V13.01,2013-06-09 15:04:00,
2013-06-09 11:14:00,74.1,35.1,29.18,North,356,4.9,4.9,24,0.00,,---,0.00,VWS V13.01,2013-06-09 15:14:00,
2013-06-09 11:24:00,74.5,33.2,29.18,North,356,4.9,4.9,22,0.00,,---,0.00,VWS V13.01,2013-06-09 15:24:00,
2013-06-09 11:29:00,74.1,32.9,29.18,North,356,4.9,4.9,22,0.00,,---,0.00,VWS V13.01,2013-06-09 15:29:00,
2013-06-09 11:34:00,74.1,32.9,29.18,North,356,4.9,4.9,22,0.00,,---,0.00,VWS V13.01,2013-06-09 15:34:00,
2013-06-09 11:39:00,74.7,33.3,29.18,North,356,4.9,4.9,22,0.00,,---,0.00,VWS V13.01,2013-06-09 15:39:00,
2013-06-09 11:44:00,75.0,33.6,29.18,North,356,4.9,4.9,22,0.00,,---,0.00,VWS V13.01,2013-06-09 15:44:00,
2013-06-09 11:49:00,75.2,32.6,29.18,North,356,4.9,4.9,21,0.00,,---,0.00,VWS V13.01,2013-06-09 15:49:00,
2013-06-09 11:54:00,75.6,32.9,29.18,North,356,4.9,4.9,21,0.00,,---,0.00,VWS V13.01,2013-06-09 15:54:00,
2013-06-09 11:59:00,75.6,32.9,29.18,North,356,4.9,4.9,21,0.00,,---,0.00,VWS V13.01,2013-06-09 15:59:00,
2013-06-09 12:09:00,75.9,33.2,29.18,North,356,4.9,4.9,21,0.00,,---,0.00,VWS V13.01,2013-06-09 16:09:00,
2013-06-09 12:14:00,75.7,33.1,29.18,North,356,4.9,4.9,21,0.00,,---,0.00,VWS V13.01,2013-06-09 16:14:00,
2013-06-09 12:19:00,75.6,32.9,29.18,North,356,4.9,4.9,21,0.00,,---,0.00,VWS V13.01,2013-06-09 16:19:00,
2013-06-09 12:24:00,75.9,33.2,29.18,North,356,4.9,4.9,21,0.00,,---,0.00,VWS V13.01,2013-06-09 16:24:00,
2013-06-09 12:29:00,76.1,33.4,29.18,North,356,4.9,4.9,21,0.00,,---,0.00,VWS V13.01,2013-06-09 16:29:00,
2013-06-09 12:34:00,76.5,33.7,29.18,North,356,4.9,4.9,21,0.00,,---,0.00,VWS V13.01,2013-06-09 16:34:00,
2013-06-09 12:39:00,76.5,32.5,29.18,North,356,4.9,4.9,20,0.00,,---,0.00,VWS V13.01,2013-06-09 16:39:00,
2013-06-09 12:44:00,76.3,33.5,29.18,North,356,4.9,4.9,21,0.00,,---,0.00,VWS V13.01,2013-06-09 16:44:00,
2013-06-09 12:49:00,76.6,33.8,29.18,North,356,4.9,4.9,21,0.00,,---,0.00,VWS V13.01,2013-06-09 16:49:00,
2013-06-09 12:54:00,76.8,34.0,29.18,North,356,4.9,4.9,21,0.00,,---,0.00,VWS V13.01,2013-06-09 16:54:00,
2013-06-09 12:59:00,76.3,33.5,29.18,North,356,4.9,4.9,21,0.00,,---,0.00,VWS V13.01,2013-06-09 16:59:00,
2013-06-09 13:04:00,76.3,33.5,29.18,North,356,4.9,4.9,21,0.00,,---,0.00,VWS V13.01,2013-06-09 17:04:00,
2013-06-09 13:09:00,77.0,34.1,29.18,North,356,4.9,4.9,21,0.00,,---,0.00,VWS V13.01,2013-06-09 17:09:00,
2013-06-09 13:14:00,77.5,33.3,29.18,North,356,4.9,4.9,20,0.00,,---,0.00,VWS V13.01,2013-06-09 17:14:00,
2013-06-09 13:19:00,76.8,32.8,29.15,North,356,4.9,4.9,20,0.00,,---,0.00,VWS V13.01,2013-06-09 17:19:00,
2013-06-09 13:24:00,76.6,32.6,29.15,North,356,4.9,4.9,20,0.00,,---,0.00,VWS V13.01,2013-06-09 17:24:00,
2013-06-09 13:29:00,77.5,33.3,29.15,North,356,4.9,4.9,20,0.00,,---,0.00,VWS V13.01,2013-06-09 17:29:00,
2013-06-09 13:39:00,76.8,32.8,29.18,North,356,4.9,4.9,20,0.00,,---,0.00,VWS V13.01,2013-06-09 17:39:00,
2013-06-09 13:44:00,77.4,33.2,29.18,North,356,4.9,4.9,20,0.00,,---,0.00,VWS V13.01,2013-06-09 17:44:00,
2013-06-09 13:49:00,78.6,34.2,29.18,North,356,4.9,4.9,20,0.00,,---,0.00,VWS V13.01,2013-06-09 17:49:00,
2013-06-09 13:54:00,79.7,35.1,29.18,North,356,4.9,4.9,20,0.00,,---,0.00,VWS V13.01,2013-06-09 17:54:00,
2013-06-09 13:59:00,79.9,35.3,29.18,North,356,4.9,4.9,20,0.00,,---,0.00,VWS V13.01,2013-06-09 17:59:00,
2013-06-09 14:04:00,79.3,34.8,29.18,North,356,4.9,4.9,20,0.00,,---,0.00,VWS V13.01,2013-06-09 18:04:00,
2013-06-09 14:14:00,78.8,34.4,29.18,North,356,4.9,4.9,20,0.00,,---,0.00,VWS V13.01,2013-06-09 18:14:00,
2013-06-09 14:19:00,79.0,34.5,29.18,North,356,4.9,4.9,20,0.00,,---,0.00,VWS V13.01,2013-06-09 18:19:00,
2013-06-09 14:24:00,78.3,33.9,29.18,North,356,4.9,4.9,20,0.00,,---,0.00,VWS V13.01,2013-06-09 18:24:00,
2013-06-09 14:29:00,78.6,34.2,29.18,North,356,4.9,4.9,20,0.00,,---,0.00,VWS V13.01,2013-06-09 18:29:00,
2013-06-09 14:34:00,79.5,35.0,29.18,North,356,4.9,4.9,20,0.00,,---,0.00,VWS V13.01,2013-06-09 18:34:00,
2013-06-09 14:39:00,78.8,30.4,29.18,North,356,4.9,4.9,17,0.00,,---,0.00,VWS V13.01,2013-06-09 18:39:00,
2013-06-09 14:44:00,80.1,35.4,29.18,North,356,4.9,4.9,20,0.00,,---,0.00,VWS V13.01,2013-06-09 18:44:00,
2013-06-09 14:49:00,81.0,34.9,29.18,North,356,4.9,4.9,19,0.00,,---,0.00,VWS V13.01,2013-06-09 18:49:00,
2013-06-09 14:54:00,79.3,30.8,29.18,North,356,4.9,4.9,17,0.00,,---,0.00,VWS V13.01,2013-06-09 18:54:00,
2013-06-09 14:59:00,80.1,35.4,29.18,North,356,4.9,4.9,20,0.00,,---,0.00,VWS V13.01,2013-06-09 18:59:00,
2013-06-09 15:04:00,80.4,31.7,29.18,North,356,4.9,4.9,17,0.00,,---,0.00,VWS V13.01,2013-06-09 19:04:00,
2013-06-09 15:09:00,80.6,31.8,29.18,North,356,4.9,4.9,17,0.00,,---,0.00,VWS V13.01,2013-06-09 19:09:00,
2013-06-09 15:14:00,81.1,35.0,29.18,North,356,4.9,4.9,19,0.00,,---,0.00,VWS V13.01,2013-06-09 19:14:00,
2013-06-09 15:19:00,79.7,31.1,29.18,North,356,4.9,4.9,17,0.00,,---,0.00,VWS V13.01,2013-06-09 19:19:00,
2013-06-09 15:24:00,79.2,30.6,29.18,North,356,4.9,4.9,17,0.00,,---,0.00,VWS V13.01,2013-06-09 19:24:00,
2013-06-09 15:34:00,80.8,32.0,29.18,North,356,4.9,4.9,17,0.00,,---,0.00,VWS V13.01,2013-06-09 19:34:00,
2013-06-09 15:39:00,82.4,31.8,29.18,North,356,4.9,4.9,16,0.00,,---,0.00,VWS V13.01,2013-06-09 19:39:00,
2013-06-09 15:44:00,82.2,28.3,29.18,North,356,4.9,4.9,14,0.00,,---,0.00,VWS V13.01,2013-06-09 19:44:00,
2013-06-09 15:49:00,83.3,29.2,29.18,North,356,4.9,4.9,14,0.00,,---,0.00,VWS V13.01,2013-06-09 19:49:00,
2013-06-09 15:54:00,84.7,28.5,29.18,North,356,4.9,4.9,13,0.00,,---,0.00,VWS V13.01,2013-06-09 19:54:00,
2013-06-09 15:59:00,84.7,28.5,29.18,North,356,4.9,4.9,13,0.00,,---,0.00,VWS V13.01,2013-06-09 19:59:00,
2013-06-09 16:04:00,84.0,29.8,29.18,North,356,4.9,4.9,14,0.00,,---,0.00,VWS V13.01,2013-06-09 20:04:00,
2013-06-09 16:09:00,83.8,29.6,29.18,North,356,4.9,4.9,14,0.00,,---,0.00,VWS V13.01,2013-06-09 20:09:00,
2013-06-09 16:14:00,81.9,28.0,29.18,North,356,4.9,4.9,14,0.00,,---,0.00,VWS V13.01,2013-06-09 20:14:00,
2013-06-09 16:19:00,81.5,32.5,29.18,North,356,4.9,4.9,17,0.00,,---,0.00,VWS V13.01,2013-06-09 20:19:00,
2013-06-09 16:24:00,85.1,28.8,29.18,North,356,4.9,4.9,13,0.00,,---,0.00,VWS V13.01,2013-06-09 20:24:00,
2013-06-09 16:29:00,84.9,28.6,29.18,North,356,4.9,4.9,13,0.00,,---,0.00,VWS V13.01,2013-06-09 20:29:00,
2013-06-09 16:34:00,82.4,28.5,29.18,North,356,4.9,4.9,14,0.00,,---,0.00,VWS V13.01,2013-06-09 20:34:00,
2013-06-09 16:39:00,83.5,29.3,29.18,North,356,4.9,4.9,14,0.00,,---,0.00,VWS V13.01,2013-06-09 20:39:00,
2013-06-09 16:49:00,86.5,29.9,29.18,North,356,4.9,4.9,13,0.00,,---,0.00,VWS V13.01,2013-06-09 20:49:00,
2013-06-09 16:54:00,88.0,31.0,29.18,North,356,4.9,4.9,13,0.00,,---,0.00,VWS V13.01,2013-06-09 20:54:00,
2013-06-09 16:59:00,89.8,30.5,29.18,North,356,4.9,4.9,12,0.00,,---,0.00,VWS V13.01,2013-06-09 20:59:00,
2013-06-09 17:04:00,90.7,31.2,29.18,North,356,4.9,4.9,12,0.00,,---,0.00,VWS V13.01,2013-06-09 21:04:00,
2013-06-09 17:09:00,90.1,30.7,29.18,North,356,4.9,4.9,12,0.00,,---,0.00,VWS V13.01,2013-06-09 21:09:00,
2013-06-09 17:14:00,90.1,30.7,29.18,North,356,4.9,4.9,12,0.00,,---,0.00,VWS V13.01,2013-06-09 21:14:00,
2013-06-09 17:19:00,88.7,31.6,29.18,North,356,4.9,4.9,13,0.00,,---,0.00,VWS V13.01,2013-06-09 21:19:00,
2013-06-09 17:24:00,87.3,30.5,29.18,North,356,4.9,4.9,13,0.00,,---,0.00,VWS V13.01,2013-06-09 21:24:00,
2013-06-09 17:29:00,86.2,29.6,29.18,North,356,4.9,4.9,13,0.00,,---,0.00,VWS V13.01,2013-06-09 21:29:00,
2013-06-09 17:34:00,86.2,29.6,29.18,North,356,4.9,4.9,13,0.00,,---,0.00,VWS V13.01,2013-06-09 21:34:00,
2013-06-09 17:39:00,85.6,29.2,29.18,North,356,4.9,4.9,13,0.00,,---,0.00,VWS V13.01,2013-06-09 21:39:00,
2013-06-09 17:44:00,84.6,28.4,29.18,North,356,4.9,4.9,13,0.00,,---,0.00,VWS V13.01,2013-06-09 21:44:00,
2013-06-09 17:49:00,83.5,29.3,29.18,North,356,4.9,4.9,14,0.00,,---,0.00,VWS V13.01,2013-06-09 21:49:00,
2013-06-09 17:54:00,82.6,28.6,29.18,North,356,4.9,4.9,14,0.00,,---,0.00,VWS V13.01,2013-06-09 21:54:00,
2013-06-09 17:59:00,81.3,27.6,29.18,North,356,4.9,4.9,14,0.00,,---,0.00,VWS V13.01,2013-06-09 21:59:00,
2013-06-09 18:04:00,80.4,28.6,29.18,North,356,4.9,4.9,15,0.00,,---,0.00,VWS V13.01,2013-06-09 22:04:00,
2013-06-09 18:09:00,79.9,28.1,29.18,North,356,4.9,4.9,15,0.00,,---,0.00,VWS V13.01,2013-06-09 22:09:00,
2013-06-09 18:14:00,79.5,27.9,29.18,North,356,4.9,4.9,15,0.00,,---,0.00,VWS V13.01,2013-06-09 22:14:00,
2013-06-09 18:24:00,78.4,31.5,29.18,North,356,4.9,4.9,18,0.00,,---,0.00,VWS V13.01,2013-06-09 22:24:00,
2013-06-09 18:29:00,78.3,31.3,29.18,North,356,4.9,4.9,18,0.00,,---,0.00,VWS V13.01,2013-06-09 22:29:00,
2013-06-09 18:34:00,77.9,31.0,29.23,North,356,4.9,4.9,18,0.00,,---,0.00,VWS V13.01,2013-06-09 22:34:00,
2013-06-09 18:39:00,77.7,30.9,29.23,North,356,4.9,4.9,18,0.00,,---,0.00,VWS V13.01,2013-06-09 22:39:00,
2013-06-09 18:44:00,77.5,33.3,29.23,North,356,4.9,4.9,20,0.00,,---,0.00,VWS V13.01,2013-06-09 22:44:00,
2013-06-09 18:49:00,77.4,33.2,29.21,North,356,4.9,4.9,20,0.00,,---,0.00,VWS V13.01,2013-06-09 22:49:00,
2013-06-09 18:59:00,76.5,33.7,29.21,North,356,4.9,4.9,21,0.00,,---,0.00,VWS V13.01,2013-06-09 22:59:00,
2013-06-09 19:04:00,75.7,34.2,29.21,North,356,4.9,4.9,22,0.00,,---,0.00,VWS V13.01,2013-06-09 23:04:00,
2013-06-09 19:09:00,75.2,34.9,29.21,North,356,4.9,4.9,23,0.00,,---,0.00,VWS V13.01,2013-06-09 23:09:00,
2013-06-09 19:14:00,74.8,35.7,29.21,North,356,4.9,4.9,24,0.00,,---,0.00,VWS V13.01,2013-06-09 23:14:00,
2013-06-09 19:19:00,74.3,36.2,29.21,North,356,4.9,4.9,25,0.00,,---,0.00,VWS V13.01,2013-06-09 23:19:00,
2013-06-09 19:24:00,73.9,36.9,29.21,North,356,4.9,4.9,26,0.00,,---,0.00,VWS V13.01,2013-06-09 23:24:00,
2013-06-09 19:29:00,73.6,37.6,29.21,North,356,4.9,4.9,27,0.00,,---,0.00,VWS V13.01,2013-06-09 23:29:00,
2013-06-09 19:34:00,73.4,37.4,29.21,North,356,4.9,4.9,27,0.00,,---,0.00,VWS V13.01,2013-06-09 23:34:00,
2013-06-09 19:39:00,73.0,38.9,29.21,North,356,4.9,4.9,29,0.00,,---,0.00,VWS V13.01,2013-06-09 23:39:00,
2013-06-09 19:44:00,72.9,39.7,29.21,North,356,4.9,4.9,30,0.00,,---,0.00,VWS V13.01,2013-06-09 23:44:00,
2013-06-09 19:54:00,72.0,40.5,29.18,North,356,4.9,4.9,32,0.00,,---,0.00,VWS V13.01,2013-06-09 23:54:00,
2013-06-09 19:59:00,71.6,40.2,29.18,North,356,4.9,4.9,32,0.00,,---,0.00,VWS V13.01,2013-06-09 23:59:00,
2013-06-09 20:04:00,71.4,40.8,29.21,North,356,4.9,4.9,33,0.00,,---,0.00,VWS V13.01,2013-06-10 00:04:00,
2013-06-09 20:09:00,71.1,40.5,29.21,North,356,4.9,4.9,33,0.00,,---,0.00,VWS V13.01,2013-06-10 00:09:00,
2013-06-09 20:14:00,70.7,40.2,29.21,North,356,4.9,4.9,33,0.00,,---,0.00,VWS V13.01,2013-06-10 00:14:00,
2013-06-09 20:19:00,70.3,40.7,29.21,North,356,4.9,4.9,34,0.00,,---,0.00,VWS V13.01,2013-06-10 00:19:00,
2013-06-09 20:24:00,70.0,40.3,29.21,North,356,4.9,4.9,34,0.00,,---,0.00,VWS V13.01,2013-06-10 00:24:00,
2013-06-09 20:34:00,69.3,40.5,29.21,North,356,4.9,4.9,35,0.00,,---,0.00,VWS V13.01,2013-06-10 00:34:00,
2013-06-09 20:39:00,69.1,40.3,29.21,North,356,4.9,4.9,35,0.00,,---,0.00,VWS V13.01,2013-06-10 00:39:00,
2013-06-09 20:44:00,68.9,40.9,29.21,North,356,4.9,4.9,36,0.00,,---,0.00,VWS V13.01,2013-06-10 00:44:00,
2013-06-09 20:49:00,68.5,40.5,29.21,North,356,4.9,4.9,36,0.00,,---,0.00,VWS V13.01,2013-06-10 00:49:00,
2013-06-09 20:54:00,68.4,40.4,29.21,North,356,4.9,4.9,36,0.00,,---,0.00,VWS V13.01,2013-06-10 00:54:00,
2013-06-09 20:59:00,68.2,40.9,29.21,North,356,4.9,4.9,37,0.00,,---,0.00,VWS V13.01,2013-06-10 00:59:00,
2013-06-09 21:04:00,67.8,41.3,29.21,North,356,4.9,4.9,38,0.00,,---,0.00,VWS V13.01,2013-06-10 01:04:00,
2013-06-09 21:09:00,67.6,41.2,29.21,North,356,4.9,4.9,38,0.00,,---,0.00,VWS V13.01,2013-06-10 01:09:00,
2013-06-09 21:14:00,67.5,41.7,29.21,North,356,4.9,4.9,39,0.00,,---,0.00,VWS V13.01,2013-06-10 01:14:00,
2013-06-09 21:24:00,66.9,43.1,29.21,North,356,4.9,4.9,42,0.00,,---,0.00,VWS V13.01,2013-06-10 01:24:00,
2013-06-09 21:29:00,66.7,42.9,29.21,North,356,4.9,4.9,42,0.00,,---,0.00,VWS V13.01,2013-06-10 01:29:00,
2013-06-09 21:34:00,66.6,42.8,29.21,North,356,4.9,4.9,42,0.00,,---,0.00,VWS V13.01,2013-06-10 01:34:00,
2013-06-09 21:39:00,66.6,42.8,29.21,North,356,4.9,4.9,42,0.00,,---,0.00,VWS V13.01,2013-06-10 01:39:00,
2013-06-09 21:44:00,66.4,43.2,29.21,North,356,4.9,4.9,43,0.00,,---,0.00,VWS V13.01,2013-06-10 01:44:00,
2013-06-09 21:49:00,66.2,43.7,29.23,North,356,4.9,4.9,44,0.00,,---,0.00,VWS V13.01,2013-06-10 01:49:00,
2013-06-09 21:54:00,65.7,44.9,29.23,North,356,4.9,4.9,47,0.00,,---,0.00,VWS V13.01,2013-06-10 01:54:00,
2013-06-09 21:59:00,65.7,44.9,29.23,North,356,4.9,4.9,47,0.00,,---,0.00,VWS V13.01,2013-06-10 01:59:00,
2013-06-09 22:04:00,65.5,44.7,29.23,North,356,4.9,4.9,47,0.00,,---,0.00,VWS V13.01,2013-06-10 02:04:00,
2013-06-09 22:09:00,65.3,45.1,29.23,North,356,4.9,4.9,48,0.00,,---,0.00,VWS V13.01,2013-06-10 02:09:00,
2013-06-09 22:14:00,65.1,45.0,29.23,North,356,4.9,4.9,48,0.00,,---,0.00,VWS V13.01,2013-06-10 02:14:00,
2013-06-09 22:19:00,65.1,45.0,29.23,North,356,4.9,4.9,48,0.00,,---,0.00,VWS V13.01,2013-06-10 02:19:00,
2013-06-09 22:24:00,64.9,45.9,29.23,North,356,4.9,4.9,50,0.00,,---,0.00,VWS V13.01,2013-06-10 02:24:00,
2013-06-09 22:29:00,64.6,45.5,29.23,North,356,4.9,4.9,50,0.00,,---,0.00,VWS V13.01,2013-06-10 02:29:00,
2013-06-09 22:34:00,64.2,46.8,29.21,North,356,4.9,4.9,53,0.00,,---,0.00,VWS V13.01,2013-06-10 02:34:00,
2013-06-09 22:39:00,64.0,46.6,29.21,North,356,4.9,4.9,53,0.00,,---,0.00,VWS V13.01,2013-06-10 02:39:00,
2013-06-09 22:44:00,64.0,46.6,29.21,North,356,4.9,4.9,53,0.00,,---,0.00,VWS V13.01,2013-06-10 02:44:00,
2013-06-09 22:49:00,64.2,46.2,29.21,North,356,4.9,4.9,52,0.00,,---,0.00,VWS V13.01,2013-06-10 02:49:00,
2013-06-09 22:59:00,64.0,46.1,29.21,North,356,4.9,4.9,52,0.00,,---,0.00,VWS V13.01,2013-06-10 02:59:00,
2013-06-09 23:04:00,64.0,46.1,29.21,North,356,4.9,4.9,52,0.00,,---,0.00,VWS V13.01,2013-06-10 03:04:00,
2013-06-09 23:09:00,63.7,45.8,29.21,North,356,4.9,4.9,52,0.00,,---,0.00,VWS V13.01,2013-06-10 03:09:00,
2013-06-09 23:14:00,63.3,46.4,29.21,North,356,4.9,4.9,54,0.00,,---,0.00,VWS V13.01,2013-06-10 03:14:00,
2013-06-09 23:19:00,63.1,46.2,29.21,North,356,4.9,4.9,54,0.00,,---,0.00,VWS V13.01,2013-06-10 03:19:00,
2013-06-09 23:24:00,63.1,46.2,29.21,North,356,4.9,4.9,54,0.00,,---,0.00,VWS V13.01,2013-06-10 03:24:00,
2013-06-09 23:29:00,63.1,46.2,29.21,North,356,4.9,4.9,54,0.00,,---,0.00,VWS V13.01,2013-06-10 03:29:00,
2013-06-09 23:34:00,63.1,46.2,29.21,North,356,4.9,4.9,54,0.00,,---,0.00,VWS V13.01,2013-06-10 03:34:00,
2013-06-09 23:39:00,62.8,45.9,29.21,North,356,4.9,4.9,54,0.00,,---,0.00,VWS V13.01,2013-06-10 03:39:00,
2013-06-09 23:44:00,62.6,46.7,29.21,North,356,4.9,4.9,56,0.00,,---,0.00,VWS V13.01,2013-06-10 03:44:00,
2013-06-09 23:49:00,62.4,47.0,29.21,North,356,4.9,4.9,57,0.00,,---,0.00,VWS V13.01,2013-06-10 03:49:00,
2013-06-09 23:54:00,62.1,47.6,29.21,North,356,4.9,4.9,59,0.00,,---,0.00,VWS V13.01,2013-06-10 03:54:00,
2013-06-09 23:59:00,62.2,47.8,29.21,North,356,4.9,4.9,59,0.00,,---,0.00,VWS V13.01,2013-06-10 03:59:00,